TimeCST,TemperatureF,Dew PointF,Humidity,Sea Level PressureIn,VisibilityMPH,Wind Direction,Wind SpeedMPH,Gust SpeedMPH,PrecipitationIn,Events,Conditions,WindDirDegrees,DateUTC
12:55 AM,17.6,12.7,81,29.69,10.0,SW,12.7,-,N/A,,Overcast,220,2013-01-07 06:55:00
1:55 AM,18.3,13.3,81,29.68,10.0,SSW,9.2,-,N/A,,Overcast,200,2013-01-07 07:55:00
2:55 AM,23.2,17.8,80,29.69,10.0,South,10.4,-,N/A,,Overcast,190,2013-01-07 08:55:00
3:32 AM,32.0,23.0,69,29.69,10.0,West,15.0,-,N/A,,Clear,280,2013-01-07 09:32:00
3:55 AM,33.3,23.0,66,29.68,10.0,West,15.0,21.9,N/A,,Clear,280,2013-01-07 09:55:00
4:55 AM,32.4,22.6,67,29.67,10.0,West,12.7,-,N/A,,Clear,280,2013-01-07 10:55:00
5:55 AM,32.0,22.1,67,29.69,10.0,West,17.3,27.6,N/A,,Clear,280,2013-01-07 11:55:00
6:55 AM,31.3,22.6,70,29.69,10.0,West,21.9,27.6,N/A,,Clear,280,2013-01-07 12:55:00
7:55 AM,31.6,22.8,70,29.68,10.0,West,21.9,33.4,N/A,,Clear,270,2013-01-07 13:55:00
8:55 AM,31.5,22.1,68,29.70,10.0,West,21.9,32.2,N/A,,Clear,270,2013-01-07 14:55:00
9:55 AM,32.2,21.4,64,29.72,10.0,West,23.0,33.4,N/A,,Clear,270,2013-01-07 15:55:00
10:55 AM,33.1,21.6,63,29.74,10.0,West,25.3,34.5,N/A,,Clear,280,2013-01-07 16:55:00
11:55 AM,34.5,22.1,61,29.75,10.0,WNW,19.6,29.9,N/A,,Clear,290,2013-01-07 17:55:00
12:55 PM,34.2,22.1,61,29.75,10.0,West,20.7,29.9,N/A,,Clear,280,2013-01-07 18:55:00
1:55 PM,34.2,22.3,62,29.78,10.0,NW,15.0,24.2,N/A,,Clear,310,2013-01-07 19:55:00
2:55 PM,34.0,22.1,62,29.81,10.0,NW,15.0,-,N/A,,Clear,310,2013-01-07 20:55:00
3:55 PM,31.8,21.4,65,29.83,10.0,WNW,12.7,-,N/A,,Clear,300,2013-01-07 21:55:00
4:55 PM,28.4,19.8,70,29.84,10.0,WNW,10.4,-,N/A,,Clear,290,2013-01-07 22:55:00
5:55 PM,25.5,18.1,74,29.85,10.0,West,10.4,-,N/A,,Clear,280,2013-01-07 23:55:00
6:55 PM,25.2,17.8,74,29.87,10.0,West,10.4,-,N/A,,Clear,280,2013-01-08 00:55:00
7:55 PM,24.4,17.2,74,29.88,10.0,West,9.2,-,N/A,,Clear,280,2013-01-08 01:55:00
8:55 PM,19.2,14.2,81,29.88,10.0,West,8.1,-,N/A,,Clear,270,2013-01-08 02:55:00
9:55 PM,15.8,12.0,85,29.89,10.0,West,9.2,-,N/A,,Clear,270,2013-01-08 03:55:00
10:55 PM,16.5,12.2,83,29.88,10.0,WSW,4.6,-,N/A,,Clear,250,2013-01-08 04:55:00
11:55 PM,14.4,10.4,84,29.88,10.0,WSW,6.9,-,N/A,,Clear,240,2013-01-08 05:55:00